createdAt,value
2018-09-25T00:01:39.761Z,103051.49
2018-09-25T00:04:13.593Z,103052.51
2018-09-25T00:06:47.251Z,103043.15
2018-09-25T00:09:20.891Z,103047.36
2018-09-25T00:11:54.740Z,103040.62
2018-09-25T00:14:28.493Z,103046.41
2018-09-25T00:17:02.092Z,103047.34
2018-09-25T00:19:35.851Z,103050.80
2018-09-25T00:22:09.821Z,103056.64
2018-09-25T00:24:43.452Z,103050.70
2018-09-25T00:27:17.214Z,103057.37
2018-09-25T00:29:50.730Z,103062.42
2018-09-25T00:32:24.406Z,103056.61
2018-09-25T00:34:57.966Z,103063.80
2018-09-25T00:37:31.668Z,103060.04
2018-09-25T00:40:05.613Z,103058.40
2018-09-25T00:42:39.356Z,103056.76
2018-09-25T00:45:13.156Z,103059.46
2018-09-25T00:47:46.982Z,103068.67
2018-09-25T00:50:20.566Z,103066.14
2018-09-25T00:52:54.301Z,103070.78
2018-09-25T00:55:28.074Z,103080.84
2018-09-25T00:58:01.929Z,103080.54
2018-09-25T01:00:35.704Z,103074.97
2018-09-25T01:03:09.271Z,103074.64
2018-09-25T01:05:42.992Z,103075.89
2018-09-25T01:08:16.562Z,103070.66
2018-09-25T01:10:50.289Z,103077.25
2018-09-25T01:13:24.058Z,103077.52
2018-09-25T01:15:58.681Z,103077.98
2018-09-25T01:18:32.301Z,103077.26
2018-09-25T01:21:05.870Z,103081.78
2018-09-25T01:23:39.413Z,103084.14
2018-09-25T01:26:12.998Z,103083.30
2018-09-25T01:28:46.657Z,103081.19
2018-09-25T01:31:20.328Z,103077.80
2018-09-25T01:33:53.943Z,103085.50
2018-09-25T01:36:27.638Z,103091.73
2018-09-25T01:39:01.524Z,103087.81
2018-09-25T01:41:35.049Z,103094.40
2018-09-25T01:44:09.192Z,103090.09
2018-09-25T01:46:42.848Z,103095.66
2018-09-25T01:49:16.483Z,103096.51
2018-09-25T01:51:49.995Z,103095.66
2018-09-25T01:54:23.780Z,103092.75
2018-09-25T01:56:57.718Z,103083.75
2018-09-25T01:59:31.537Z,103089.88
2018-09-25T02:02:05.223Z,103087.80
2018-09-25T02:04:39.149Z,103090.55
2018-09-25T02:07:12.891Z,103085.05
2018-09-25T02:09:46.732Z,103087.59
2018-09-25T02:12:20.416Z,103083.75
2018-09-25T02:14:54.267Z,103090.72
2018-09-25T02:17:27.863Z,103090.80
2018-09-25T02:20:01.329Z,103089.41
2018-09-25T02:22:35.117Z,103089.48
2018-09-25T02:25:08.671Z,103094.77
2018-09-25T02:27:42.458Z,103094.77
2018-09-25T02:30:16.117Z,103093.15
2018-09-25T02:32:49.757Z,103101.89
2018-09-25T02:35:23.437Z,103095.94
2018-09-25T02:37:57.240Z,103094.36
2018-09-25T02:40:30.975Z,103093.13
2018-09-25T02:43:04.964Z,103098.02
2018-09-25T02:45:38.534Z,103096.45
2018-09-25T02:48:12.222Z,103098.22
2018-09-25T02:50:45.976Z,103099.33
2018-09-25T02:53:19.639Z,103090.05
2018-09-25T02:55:53.521Z,103090.09
2018-09-25T02:58:27.015Z,103097.22
2018-09-25T03:01:00.733Z,103098.65
2018-09-25T03:03:34.459Z,103101.84
2018-09-25T03:06:08.215Z,103098.00
2018-09-25T03:08:41.766Z,103097.08
2018-09-25T03:11:15.523Z,103094.58
2018-09-25T03:13:49.032Z,103100.90
2018-09-25T03:16:22.854Z,103106.29
2018-09-25T03:18:56.853Z,103111.71
2018-09-25T03:21:30.593Z,103102.67
2018-09-25T03:24:04.225Z,103099.09
2018-09-25T03:26:37.938Z,103095.45
2018-09-25T03:29:11.605Z,103100.09
2018-09-25T03:31:45.142Z,103099.71
2018-09-25T03:34:18.804Z,103102.91
2018-09-25T03:36:52.524Z,103106.14
2018-09-25T03:39:26.256Z,103102.33
2018-09-25T03:42:01.469Z,103100.17
2018-09-25T03:44:35.105Z,103108.09
2018-09-25T03:47:08.618Z,103108.14
2018-09-25T03:49:42.344Z,103107.02
2018-09-25T03:52:15.972Z,103099.30
2018-09-25T03:54:49.795Z,103114.13
2018-09-25T03:57:23.479Z,103110.02
2018-09-25T03:59:57.161Z,103101.72
2018-09-25T04:02:31.027Z,103100.98
2018-09-25T04:05:04.767Z,103096.68
2018-09-25T04:07:38.537Z,103102.88
2018-09-25T04:10:12.007Z,103102.59
2018-09-25T04:12:45.829Z,103100.17
2018-09-25T04:15:19.388Z,103119.36
2018-09-25T04:17:52.984Z,103126.08
2018-09-25T04:20:26.717Z,103122.19
2018-09-25T04:23:00.415Z,103126.42
2018-09-25T04:25:34.141Z,103124.66
2018-09-25T04:28:08.197Z,103126.92
2018-09-25T04:30:41.935Z,103139.88
2018-09-25T04:33:15.590Z,103145.60
2018-09-25T04:35:49.378Z,103137.95
2018-09-25T04:38:23.140Z,103147.16
2018-09-25T04:40:56.836Z,103143.28
2018-09-25T04:43:30.593Z,103132.94
2018-09-25T04:46:04.368Z,103140.78
2018-09-25T04:48:38.180Z,103145.23
2018-09-25T04:51:11.895Z,103138.00
2018-09-25T04:53:45.346Z,103139.77
2018-09-25T04:56:19.069Z,103144.64
2018-09-25T04:58:52.847Z,103144.42
2018-09-25T05:01:26.664Z,103144.42
2018-09-25T05:04:00.285Z,103146.97
2018-09-25T05:06:33.892Z,103153.50
2018-09-25T05:09:07.616Z,103144.75
2018-09-25T05:11:41.142Z,103145.95
2018-09-25T05:14:14.903Z,103154.31
2018-09-25T05:16:48.661Z,103150.82
2018-09-25T05:19:22.265Z,103153.50
2018-09-25T05:21:55.930Z,103159.30
2018-09-25T05:24:29.521Z,103158.94
2018-09-25T05:27:03.081Z,103165.93
2018-09-25T05:29:36.673Z,103168.08
2018-09-25T05:32:10.266Z,103170.66
2018-09-25T05:34:44.182Z,103164.97
2018-09-25T05:37:17.765Z,103171.50
2018-09-25T05:39:51.443Z,103168.83
2018-09-25T05:42:25.242Z,103169.64
2018-09-25T05:44:58.808Z,103168.50
2018-09-25T05:47:32.481Z,103166.91
2018-09-25T05:50:06.259Z,103169.80
2018-09-25T05:52:39.933Z,103169.88
2018-09-25T05:55:13.694Z,103168.95
2018-09-25T05:57:47.298Z,103169.70
2018-09-25T06:00:21.447Z,103177.88
2018-09-25T06:02:55.242Z,103178.63
2018-09-25T06:05:28.923Z,103181.02
2018-09-25T06:08:02.617Z,103177.45
2018-09-25T06:10:36.206Z,103178.45
2018-09-25T06:13:10.003Z,103186.53
2018-09-25T06:15:50.673Z,103192.42
2018-09-25T06:18:24.236Z,103194.70
2018-09-25T06:20:57.803Z,103192.16
2018-09-25T06:23:31.596Z,103184.39
2018-09-25T06:26:05.205Z,103190.55
2018-09-25T06:28:38.813Z,103193.70
2018-09-25T06:31:12.385Z,103202.88
2018-09-25T06:33:46.095Z,103200.41
2018-09-25T06:36:19.849Z,103205.41
2018-09-25T06:38:53.600Z,103209.55
2018-09-25T06:41:27.377Z,103207.66
2018-09-25T06:44:01.142Z,103210.88
2018-09-25T06:46:35.016Z,103210.17
2018-09-25T06:49:08.741Z,103220.20
2018-09-25T06:51:42.262Z,103219.28
2018-09-25T06:54:15.894Z,103221.90
2018-09-25T06:56:49.665Z,103219.74
2018-09-25T06:59:23.151Z,103220.28
2018-09-25T07:01:56.698Z,103222.94
2018-09-25T07:04:30.285Z,103228.56
2018-09-25T07:07:03.830Z,103228.55
2018-09-25T07:09:37.565Z,103239.42
2018-09-25T07:12:11.285Z,103234.62
2018-09-25T07:14:45.133Z,103236.89
2018-09-25T07:17:18.662Z,103247.02
2018-09-25T07:19:52.341Z,103245.44
2018-09-25T07:22:26.236Z,103252.10
2018-09-25T07:24:59.996Z,103248.21
2018-09-25T07:27:33.699Z,103254.03
2018-09-25T07:30:07.283Z,103259.29
2018-09-25T07:32:40.881Z,103254.13
2018-09-25T07:35:14.502Z,103253.36
2018-09-25T07:37:48.279Z,103255.23
2018-09-25T07:40:22.123Z,103260.11
2018-09-25T07:42:55.673Z,103261.13
2018-09-25T07:45:29.464Z,103262.62
2018-09-25T07:48:03.124Z,103267.08
2018-09-25T07:50:36.928Z,103269.41
2018-09-25T07:53:10.606Z,103268.36
2018-09-25T07:55:44.464Z,103270.28
2018-09-25T07:58:18.167Z,103273.83
2018-09-25T08:00:51.722Z,103273.91
2018-09-25T08:03:25.526Z,103279.71
2018-09-25T08:05:59.248Z,103284.34
2018-09-25T08:08:32.982Z,103282.73
2018-09-25T08:11:06.619Z,103282.52
2018-09-25T08:13:41.430Z,103283.58
2018-09-25T08:16:15.175Z,103281.87
2018-09-25T08:18:48.965Z,103283.34
2018-09-25T08:21:22.727Z,103290.45
2018-09-25T08:23:56.339Z,103295.09
2018-09-25T08:26:29.882Z,103288.57
2018-09-25T08:29:03.595Z,103295.68
2018-09-25T08:31:37.173Z,103299.31
2018-09-25T08:34:10.942Z,103296.52
2018-09-25T08:36:44.639Z,103297.95
2018-09-25T08:39:18.414Z,103298.20
2018-09-25T08:41:52.111Z,103301.80
2018-09-25T08:44:25.846Z,103302.58
2018-09-25T08:46:59.562Z,103304.42
2018-09-25T08:49:33.212Z,103305.99
2018-09-25T08:52:06.824Z,103315.25
2018-09-25T08:54:40.454Z,103311.86
2018-09-25T08:57:14.300Z,103308.66
2018-09-25T08:59:48.212Z,103304.06
2018-09-25T09:02:21.936Z,103315.66
2018-09-25T09:04:55.683Z,103313.63
2018-09-25T09:07:29.284Z,103312.75
2018-09-25T09:10:03.051Z,103322.38
2018-09-25T09:12:36.802Z,103315.63
2018-09-25T09:15:10.751Z,103308.40
2018-09-25T09:17:44.488Z,103309.92
2018-09-25T09:20:18.033Z,103309.95
2018-09-25T09:22:51.832Z,103310.63
2018-09-25T09:25:25.352Z,103309.91
2018-09-25T09:27:59.108Z,103302.40
2018-09-25T09:30:32.798Z,103305.16
2018-09-25T09:33:06.387Z,103314.89
2018-09-25T09:35:40.160Z,103314.93
2018-09-25T09:38:13.832Z,103306.06
2018-09-25T09:40:47.492Z,103301.75
2018-09-25T09:43:21.244Z,103310.53
2018-09-25T09:45:54.823Z,103310.18
2018-09-25T09:48:28.535Z,103314.26
2018-09-25T09:51:02.108Z,103315.70
2018-09-25T09:53:35.826Z,103314.27
2018-09-25T09:56:09.652Z,103311.55
2018-09-25T09:58:43.353Z,103317.15
2018-09-25T10:01:16.881Z,103313.00
2018-09-25T10:03:50.694Z,103314.21
2018-09-25T10:06:24.871Z,103318.47
2018-09-25T10:08:58.456Z,103309.88
2018-09-25T10:11:32.287Z,103320.06
2018-09-25T10:14:05.840Z,103318.93
2018-09-25T10:16:39.421Z,103320.73
2018-09-25T10:19:13.041Z,103323.73
2018-09-25T10:21:46.735Z,103326.56
2018-09-25T10:24:20.608Z,103318.81
2018-09-25T10:26:54.781Z,103319.38
2018-09-25T10:29:28.358Z,103315.58
2018-09-25T10:35:38.982Z,103326.95
2018-09-25T10:38:12.496Z,103316.53
2018-09-25T10:40:46.296Z,103321.14
2018-09-25T10:43:20.110Z,103320.38
2018-09-25T10:45:53.905Z,103321.30
2018-09-25T10:48:27.718Z,103323.59
2018-09-25T10:51:01.515Z,103321.53
2018-09-25T10:53:34.994Z,103314.92
2018-09-25T10:56:08.544Z,103322.94
2018-09-25T10:58:42.096Z,103315.33
2018-09-25T11:01:16.791Z,103312.36
2018-09-25T11:03:50.581Z,103313.06
2018-09-25T11:06:24.150Z,103309.73
2018-09-25T11:08:57.746Z,103308.52
2018-09-25T11:11:31.589Z,103306.31
2018-09-25T11:14:05.393Z,103315.09
2018-09-25T11:16:39.124Z,103313.97
2018-09-25T11:19:13.134Z,103312.00
2018-09-25T11:21:47.258Z,103308.23
2018-09-25T11:24:20.871Z,103319.48
2018-09-25T11:26:54.621Z,103318.22
2018-09-25T11:29:28.392Z,103324.70
2018-09-25T11:32:02.111Z,103317.11
2018-09-25T11:34:35.750Z,103314.59
2018-09-25T11:37:09.592Z,103312.48
2018-09-25T11:39:43.433Z,103312.64
2018-09-25T11:42:17.269Z,103304.91
2018-09-25T11:44:51.051Z,103301.20
2018-09-25T11:47:24.691Z,103300.60
2018-09-25T11:49:58.356Z,103293.53
2018-09-25T11:52:32.056Z,103293.41
2018-09-25T11:55:05.848Z,103296.11
2018-09-25T11:57:39.610Z,103297.67
2018-09-25T12:00:13.153Z,103298.05
2018-09-25T12:02:46.750Z,103301.98
2018-09-25T12:05:20.425Z,103294.77
2018-09-25T12:07:54.280Z,103306.14
2018-09-25T12:10:27.950Z,103310.02
2018-09-25T12:13:01.697Z,103303.67
2018-09-25T12:15:35.399Z,103287.33
2018-09-25T12:18:09.770Z,103286.41
2018-09-25T12:20:43.822Z,103284.72
2018-09-25T12:23:17.528Z,103280.38
2018-09-25T12:25:51.220Z,103284.61
2018-09-25T12:28:24.947Z,103279.33
2018-09-25T12:30:58.583Z,103276.88
2018-09-25T12:33:32.338Z,103270.55
2018-09-25T12:36:05.848Z,103262.47
2018-09-25T12:38:39.383Z,103270.31
2018-09-25T12:41:13.050Z,103263.22
2018-09-25T12:43:46.842Z,103259.27
2018-09-25T12:46:20.372Z,103255.20
2018-09-25T12:48:54.069Z,103248.57
2018-09-25T12:51:27.686Z,103245.16
2018-09-25T12:54:01.461Z,103237.03
2018-09-25T12:56:35.108Z,103225.81
2018-09-25T12:59:08.596Z,103228.09
2018-09-25T13:01:42.156Z,103224.13
2018-09-25T13:04:15.795Z,103222.11
2018-09-25T13:06:49.460Z,103215.82
2018-09-25T13:09:23.206Z,103226.41
2018-09-25T13:11:56.984Z,103223.06
2018-09-25T13:14:30.448Z,103220.08
2018-09-25T13:17:04.259Z,103221.89
2018-09-25T13:19:37.799Z,103224.05
2018-09-25T13:22:11.545Z,103220.78
2018-09-25T13:24:45.281Z,103213.05
2018-09-25T13:27:18.833Z,103220.91
2018-09-25T13:29:52.549Z,103213.09
2018-09-25T13:32:26.286Z,103213.87
2018-09-25T13:35:01.079Z,103221.78
2018-09-25T13:37:34.820Z,103216.54
2018-09-25T13:40:08.467Z,103218.66
2018-09-25T13:42:42.306Z,103208.72
2018-09-25T13:45:15.768Z,103209.34
2018-09-25T13:47:49.668Z,103202.36
2018-09-25T13:50:23.305Z,103193.20
2018-09-25T13:52:56.690Z,103197.66
2018-09-25T13:55:30.416Z,103196.21
2018-09-25T13:58:04.079Z,103196.92
2018-09-25T14:00:37.803Z,103190.91
2018-09-25T14:03:11.369Z,103183.25
2018-09-25T14:05:45.083Z,103177.81
2018-09-25T14:08:18.585Z,103177.48
2018-09-25T14:10:52.244Z,103174.25
2018-09-25T14:13:26.156Z,103169.30
2018-09-25T14:15:59.804Z,103173.44
2018-09-25T14:18:33.689Z,103170.76
2018-09-25T14:21:07.351Z,103171.23
2018-09-25T14:23:40.989Z,103161.38
2018-09-25T14:26:14.697Z,103156.91
2018-09-25T14:28:49.058Z,103158.47
2018-09-25T14:31:22.692Z,103154.33
2018-09-25T14:33:56.254Z,103145.05
2018-09-25T14:36:32.776Z,103141.63
2018-09-25T14:39:06.462Z,103139.81
2018-09-25T14:41:40.121Z,103134.16
2018-09-25T14:44:13.704Z,103143.70
2018-09-25T14:46:47.469Z,103136.69
2018-09-25T14:49:23.212Z,103131.03
2018-09-25T14:51:56.934Z,103136.09
2018-09-25T14:54:30.781Z,103131.20
2018-09-25T14:57:04.464Z,103136.53
2018-09-25T14:59:37.963Z,103132.20
2018-09-25T15:02:11.495Z,103129.06
2018-09-25T15:04:45.309Z,103129.06
2018-09-25T15:07:19.164Z,103124.47
2018-09-25T15:09:52.732Z,103126.28
2018-09-25T15:12:26.378Z,103128.34
2018-09-25T15:15:00.021Z,103109.42
2018-09-25T15:17:33.537Z,103109.28
2018-09-25T15:20:07.213Z,103115.70
2018-09-25T15:22:41.084Z,103111.48
2018-09-25T15:25:14.617Z,103116.17
2018-09-25T15:27:49.366Z,103109.09
2018-09-25T15:30:22.990Z,103103.65
2018-09-25T15:32:56.750Z,103107.38
2018-09-25T15:35:30.478Z,103110.98
2018-09-25T15:38:03.943Z,103104.23
2018-09-25T15:40:37.667Z,103114.37
2018-09-25T15:43:11.460Z,103109.05
2018-09-25T15:45:45.076Z,103101.50
2018-09-25T15:48:18.920Z,103106.93
2018-09-25T15:50:52.736Z,103106.32
2018-09-25T15:53:26.406Z,103109.55
2018-09-25T15:56:00.239Z,103118.13
2018-09-25T15:58:34.046Z,103112.56
2018-09-25T16:01:07.830Z,103108.82
2018-09-25T16:03:41.411Z,103104.95
2018-09-25T16:06:15.029Z,103109.60
2018-09-25T16:08:48.792Z,103116.67
2018-09-25T16:11:22.363Z,103116.51
2018-09-25T16:13:56.024Z,103109.58
2018-09-25T16:16:29.661Z,103110.86
2018-09-25T16:19:03.239Z,103116.02
2018-09-25T16:21:36.908Z,103116.23
2018-09-25T16:24:10.798Z,103113.31
2018-09-25T16:26:44.505Z,103117.33
2018-09-25T16:29:18.136Z,103123.09
2018-09-25T16:31:51.685Z,103126.66
2018-09-25T16:34:25.501Z,103120.47
2018-09-25T16:36:59.107Z,103124.03
2018-09-25T16:39:32.782Z,103124.06
2018-09-25T16:42:06.356Z,103127.70
2018-09-25T16:44:40.099Z,103129.09
2018-09-25T16:47:14.047Z,103123.86
2018-09-25T16:49:47.735Z,103129.20
2018-09-25T16:52:21.401Z,103126.98
2018-09-25T16:54:55.072Z,103123.34
2018-09-25T16:57:28.771Z,103121.59
2018-09-25T17:00:02.359Z,103124.28
2018-09-25T17:02:36.002Z,103124.22
2018-09-25T17:05:09.518Z,103131.67
2018-09-25T17:07:43.006Z,103136.11
2018-09-25T17:10:16.809Z,103137.08
2018-09-25T17:12:50.531Z,103131.15
2018-09-25T17:15:24.224Z,103140.69
2018-09-25T17:17:57.951Z,103138.41
2018-09-25T17:20:31.517Z,103125.36
2018-09-25T17:23:04.995Z,103129.87
2018-09-25T17:25:38.564Z,103127.73
2018-09-25T17:28:12.346Z,103134.16
2018-09-25T17:30:45.838Z,103139.09
2018-09-25T17:33:19.677Z,103136.20
2018-09-25T17:35:53.278Z,103137.98
2018-09-25T17:38:26.926Z,103149.31
2018-09-25T17:41:00.479Z,103129.42
2018-09-25T17:43:34.084Z,103125.28
2018-09-25T17:46:07.822Z,103121.70
2018-09-25T17:48:41.554Z,103132.63
2018-09-25T17:51:15.143Z,103132.94
2018-09-25T17:53:48.973Z,103141.43
2018-09-25T17:56:22.786Z,103143.78
2018-09-25T17:58:56.921Z,103140.09
2018-09-25T18:01:30.664Z,103137.08
2018-09-25T18:04:04.225Z,103139.25
2018-09-25T18:06:38.002Z,103134.63
2018-09-25T18:09:13.947Z,103138.87
2018-09-25T18:11:47.758Z,103137.08
2018-09-25T18:14:21.443Z,103137.98
2018-09-25T18:16:55.104Z,103139.22
2018-09-25T18:19:28.600Z,103139.84
2018-09-25T18:22:02.249Z,103140.67
2018-09-25T18:24:35.914Z,103141.44
2018-09-25T18:27:09.511Z,103137.19
2018-09-25T18:29:43.024Z,103137.47
2018-09-25T18:32:17.122Z,103139.33
2018-09-25T18:34:50.674Z,103139.68
2018-09-25T18:37:24.470Z,103145.77
2018-09-25T18:39:57.961Z,103134.38
2018-09-25T18:42:31.451Z,103136.00
2018-09-25T18:45:05.067Z,103134.66
2018-09-25T18:47:38.849Z,103131.63
2018-09-25T18:50:12.526Z,103142.61
2018-09-25T18:52:46.168Z,103148.88
2018-09-25T18:55:20.337Z,103151.01
2018-09-25T18:57:53.951Z,103147.77
2018-09-25T19:00:27.634Z,103152.45
2018-09-25T19:03:01.090Z,103160.89
2018-09-25T19:05:34.675Z,103154.95
2018-09-25T19:08:08.345Z,103149.84
2018-09-25T19:10:42.710Z,103155.91
2018-09-25T19:13:17.807Z,103156.17
2018-09-25T19:15:52.393Z,103161.23
2018-09-25T19:18:25.992Z,103156.97
2018-09-25T19:20:59.595Z,103150.02
2018-09-25T19:23:33.128Z,103161.08
2018-09-25T19:26:06.869Z,103157.87
2018-09-25T19:28:40.406Z,103164.13
2018-09-25T19:31:14.165Z,103162.04
2018-09-25T19:33:47.881Z,103161.56
2018-09-25T19:36:21.408Z,103161.83
2018-09-25T19:38:55.216Z,103168.09
2018-09-25T19:41:28.776Z,103156.25
2018-09-25T19:44:02.465Z,103164.88
2018-09-25T19:46:36.157Z,103159.93
2018-09-25T19:49:10.563Z,103139.15
2018-09-25T19:51:44.047Z,103127.85
2018-09-25T19:54:17.636Z,103138.05
2018-09-25T19:56:51.134Z,103131.64
2018-09-25T19:59:24.700Z,103120.91
2018-09-25T20:01:58.697Z,103126.11
2018-09-25T20:04:32.421Z,103131.21
2018-09-25T20:07:06.228Z,103132.22
2018-09-25T20:09:40.071Z,103127.83
2018-09-25T20:12:13.813Z,103137.47
2018-09-25T20:14:48.177Z,103128.73
2018-09-25T20:17:21.898Z,103127.52
2018-09-25T20:19:55.437Z,103115.48
2018-09-25T20:22:29.297Z,103115.85
2018-09-25T20:25:03.051Z,103118.50
2018-09-25T20:27:36.913Z,103110.15
2018-09-25T20:30:10.757Z,103105.98
2018-09-25T20:32:44.577Z,103104.82
2018-09-25T20:35:18.017Z,103111.63
2018-09-25T20:37:51.678Z,103114.73
2018-09-25T20:40:25.182Z,103116.88
2018-09-25T20:42:59.038Z,103113.80
2018-09-25T20:45:32.685Z,103116.27
2018-09-25T20:48:06.302Z,103114.48
2018-09-25T20:50:39.851Z,103114.63
2018-09-25T20:53:13.613Z,103106.53
2018-09-25T20:55:47.158Z,103099.42
2018-09-25T20:58:20.894Z,103096.08
2018-09-25T21:00:54.360Z,103106.72
2018-09-25T21:03:28.136Z,103113.91
2018-09-25T21:06:01.853Z,103117.14
2018-09-25T21:08:35.471Z,103107.87
2018-09-25T21:11:09.161Z,103111.19
2018-09-25T21:13:42.928Z,103098.24
2018-09-25T21:16:16.471Z,103101.08
2018-09-25T21:18:50.270Z,103105.63
2018-09-25T21:21:23.968Z,103099.16
2018-09-25T21:23:57.789Z,103097.52
2018-09-25T21:26:31.341Z,103097.59
2018-09-25T21:29:05.026Z,103093.88
2018-09-25T21:31:38.791Z,103083.53
2018-09-25T21:36:31.803Z,103070.85
2018-09-25T21:39:05.736Z,103064.63
2018-09-25T21:41:39.287Z,103061.30
2018-09-25T21:44:12.841Z,103057.56
2018-09-25T21:46:46.401Z,103051.62
2018-09-25T21:49:19.905Z,103046.93
2018-09-25T21:51:54.465Z,103028.09
2018-09-25T21:54:27.966Z,103016.20
2018-09-25T21:57:02.830Z,103018.77
2018-09-25T21:59:36.567Z,103013.44
2018-09-25T22:02:10.390Z,103012.65
2018-09-25T22:04:44.374Z,103020.14
2018-09-25T22:07:17.993Z,103024.55
2018-09-25T22:09:51.799Z,103032.41
2018-09-25T22:12:25.374Z,103033.25
2018-09-25T22:14:58.993Z,103029.32
2018-09-25T22:17:32.704Z,103025.94
2018-09-25T22:20:06.530Z,103033.26
2018-09-25T22:22:40.057Z,103030.92
2018-09-25T22:25:13.965Z,103036.08
2018-09-25T22:27:47.524Z,103032.99
2018-09-25T22:30:21.338Z,103027.14
2018-09-25T22:32:55.116Z,103021.57
2018-09-25T22:35:28.835Z,103018.25
2018-09-25T22:38:02.485Z,103008.37
2018-09-25T22:40:36.265Z,103012.91
2018-09-25T22:43:09.991Z,103007.81
2018-09-25T22:45:43.496Z,102998.26
2018-09-25T22:48:17.166Z,103001.16
2018-09-25T22:50:50.961Z,102999.91
2018-09-25T22:53:24.574Z,102995.27
2018-09-25T22:55:58.386Z,102993.97
2018-09-25T22:58:32.062Z,102986.66
2018-09-25T23:01:05.903Z,102994.89
2018-09-25T23:03:39.681Z,102990.97
2018-09-25T23:06:13.484Z,102998.08
2018-09-25T23:08:47.189Z,102988.90
2018-09-25T23:11:20.983Z,103001.59
2018-09-25T23:13:54.801Z,102990.87
2018-09-25T23:16:28.869Z,102994.80
2018-09-25T23:19:02.362Z,103007.58
2018-09-25T23:21:36.120Z,103007.11
2018-09-25T23:24:09.684Z,103013.52
2018-09-25T23:26:43.400Z,103012.69
2018-09-25T23:29:17.211Z,103015.69
2018-09-25T23:31:51.041Z,103019.78
2018-09-25T23:34:24.717Z,103018.53
2018-09-25T23:36:58.561Z,103020.22
2018-09-25T23:39:32.390Z,103027.84
2018-09-25T23:42:06.131Z,103023.06
2018-09-25T23:44:39.659Z,103016.42
2018-09-25T23:47:12.307Z,103009.72
2018-09-25T23:49:46.711Z,103014.63
2018-09-25T23:52:33.418Z,103020.02
2018-09-25T23:55:06.728Z,103012.70
2018-09-25T23:57:42.425Z,103007.60
